createdAt,value
2022-08-30T00:00:16.716Z,11.70
2022-08-30T00:02:43.761Z,14.17
2022-08-30T00:05:11.136Z,9.30
2022-08-30T00:07:38.055Z,13.40
2022-08-30T00:10:05.650Z,10.53
2022-08-30T00:12:32.848Z,13.60
2022-08-30T00:14:59.771Z,17.53
2022-08-30T00:17:26.722Z,18.23
2022-08-30T00:19:55.986Z,10.10
2022-08-30T00:22:22.804Z,14.27
2022-08-30T00:24:49.735Z,10.83
2022-08-30T00:27:16.995Z,13.07
2022-08-30T00:29:43.785Z,7.97
2022-08-30T00:32:11.363Z,10.50
2022-08-30T00:34:38.172Z,9.13
2022-08-30T00:37:04.935Z,11.20
2022-08-30T00:39:31.763Z,9.70
2022-08-30T00:41:58.507Z,10.43
2022-08-30T00:44:25.370Z,9.60
2022-08-30T00:46:52.096Z,10.30
2022-08-30T00:49:18.936Z,6.43
2022-08-30T00:51:46.183Z,10.80
2022-08-30T00:54:13.181Z,13.90
2022-08-30T00:56:40.027Z,21.97
2022-08-30T00:59:08.377Z,12.37
2022-08-30T01:01:37.757Z,7.97
2022-08-30T01:04:06.286Z,18.27
2022-08-30T01:06:34.184Z,12.90
2022-08-30T01:09:02.075Z,5.20
2022-08-30T01:11:29.399Z,14.00
2022-08-30T01:13:56.679Z,10.67
2022-08-30T01:16:25.573Z,10.10
2022-08-30T01:18:57.326Z,7.73
2022-08-30T01:21:40.388Z,6.67
2022-08-30T01:24:07.742Z,11.70
2022-08-30T01:26:35.163Z,10.10
2022-08-30T01:29:08.257Z,7.60
2022-08-30T01:31:37.115Z,13.53
2022-08-30T01:34:08.064Z,8.37
2022-08-30T01:36:37.798Z,8.23
2022-08-30T01:39:13.236Z,21.53
2022-08-30T01:41:40.144Z,6.27
2022-08-30T01:44:10.429Z,13.10
2022-08-30T01:46:45.827Z,8.37
2022-08-30T01:49:15.937Z,8.43
2022-08-30T01:51:42.886Z,7.50
2022-08-30T01:54:10.415Z,8.47
2022-08-30T01:56:37.684Z,10.50
2022-08-30T01:59:04.915Z,11.63
2022-08-30T02:01:33.719Z,10.57
2022-08-30T02:04:00.574Z,10.63
2022-08-30T02:06:27.587Z,8.60
2022-08-30T02:08:54.537Z,10.83
2022-08-30T02:11:21.476Z,10.03
2022-08-30T02:13:48.327Z,10.03
2022-08-30T02:16:17.951Z,13.53
2022-08-30T02:18:45.399Z,7.70
2022-08-30T02:21:12.948Z,9.63
2022-08-30T02:23:39.998Z,7.90
2022-08-30T02:26:06.924Z,12.90
2022-08-30T02:28:33.688Z,7.57
2022-08-30T02:31:01.269Z,7.53
2022-08-30T02:33:28.246Z,8.17
2022-08-30T02:35:56.236Z,8.83
2022-08-30T02:38:23.918Z,8.90
2022-08-30T02:40:51.490Z,11.30
2022-08-30T02:43:19.916Z,8.83
2022-08-30T02:45:46.859Z,13.23
2022-08-30T02:48:14.057Z,7.70
2022-08-30T02:50:45.735Z,13.30
2022-08-30T02:53:14.438Z,8.13
2022-08-30T02:55:43.485Z,13.63
2022-08-30T02:58:10.786Z,17.73
2022-08-30T03:00:37.956Z,5.03
2022-08-30T03:03:05.044Z,8.43
2022-08-30T03:05:33.587Z,7.67
2022-08-30T03:08:00.777Z,8.13
2022-08-30T03:10:28.936Z,9.83
2022-08-30T03:12:56.357Z,6.70
2022-08-30T03:15:26.748Z,13.03
2022-08-30T03:17:55.038Z,10.50
2022-08-30T03:20:22.249Z,7.10
2022-08-30T03:22:49.095Z,15.97
2022-08-30T03:25:16.693Z,5.43
2022-08-30T03:27:43.539Z,7.63
2022-08-30T03:30:10.967Z,7.93
2022-08-30T03:32:37.857Z,8.70
2022-08-30T03:35:05.616Z,7.77
2022-08-30T03:37:32.656Z,12.27
2022-08-30T03:39:59.515Z,8.60
2022-08-30T03:42:26.397Z,10.17
2022-08-30T03:44:54.417Z,9.47
2022-08-30T03:47:21.285Z,9.43
2022-08-30T03:49:48.077Z,11.33
2022-08-30T03:52:14.906Z,7.53
2022-08-30T03:54:43.097Z,9.00
2022-08-30T03:57:13.360Z,11.67
2022-08-30T03:59:46.990Z,21.70
2022-08-30T04:02:13.910Z,8.87
2022-08-30T04:04:40.709Z,9.60
2022-08-30T04:07:07.536Z,8.90
2022-08-30T04:09:34.316Z,11.10
2022-08-30T04:12:01.107Z,21.90
2022-08-30T04:14:27.846Z,13.07
2022-08-30T04:16:54.594Z,9.80
2022-08-30T04:19:21.344Z,8.83
2022-08-30T04:21:48.017Z,11.90
2022-08-30T04:24:14.755Z,9.80
2022-08-30T04:26:41.434Z,15.53
2022-08-30T04:29:08.140Z,14.87
2022-08-30T04:31:34.884Z,15.83
2022-08-30T04:34:01.522Z,7.40
2022-08-30T04:36:28.291Z,9.50
2022-08-30T04:38:55.198Z,14.40
2022-08-30T04:41:24.712Z,15.80
2022-08-30T04:43:51.426Z,10.33
2022-08-30T04:46:19.438Z,8.57
2022-08-30T04:48:46.686Z,7.77
2022-08-30T04:51:15.764Z,8.40
2022-08-30T04:53:43.203Z,6.40
2022-08-30T04:56:16.526Z,12.90
2022-08-30T04:58:47.542Z,12.60
2022-08-30T05:01:18.801Z,9.73
2022-08-30T05:03:47.825Z,15.83
2022-08-30T05:06:15.298Z,12.40
2022-08-30T05:08:46.243Z,10.93
2022-08-30T05:11:14.896Z,11.43
2022-08-30T05:13:41.538Z,14.27
2022-08-30T05:16:08.873Z,17.50
2022-08-30T05:18:36.805Z,12.67
2022-08-30T05:21:12.755Z,15.90
2022-08-30T05:23:40.126Z,15.77
2022-08-30T05:26:10.012Z,13.00
2022-08-30T05:28:37.252Z,10.87
2022-08-30T05:31:13.902Z,13.10
2022-08-30T05:33:41.372Z,15.87
2022-08-30T05:36:08.910Z,21.43
2022-08-30T05:38:35.726Z,18.30
2022-08-30T05:41:07.829Z,25.97
2022-08-30T05:43:38.328Z,21.70
2022-08-30T05:46:08.373Z,13.80
2022-08-30T05:48:36.366Z,24.03
2022-08-30T05:51:23.479Z,28.40
2022-08-30T05:53:52.377Z,28.77
2022-08-30T05:56:25.827Z,28.67
2022-08-30T05:58:53.415Z,22.10
2022-08-30T06:01:24.915Z,21.50
2022-08-30T06:03:52.380Z,27.83
2022-08-30T06:06:19.263Z,26.77
2022-08-30T06:08:47.475Z,34.20
2022-08-30T06:11:15.506Z,26.03
2022-08-30T06:13:42.325Z,29.70
2022-08-30T06:16:12.537Z,24.70
2022-08-30T06:18:39.494Z,28.67
2022-08-30T06:21:06.550Z,26.00
2022-08-30T06:23:33.392Z,31.70
2022-08-30T06:26:05.417Z,24.30
2022-08-30T06:28:32.394Z,26.73
2022-08-30T06:30:59.301Z,29.30
2022-08-30T06:33:26.177Z,29.23
2022-08-30T06:35:58.807Z,25.30
2022-08-30T06:38:27.003Z,27.57
2022-08-30T06:40:53.919Z,24.73
2022-08-30T06:43:21.024Z,22.97
2022-08-30T06:45:48.114Z,29.23
2022-08-30T06:48:15.071Z,25.73
2022-08-30T06:50:42.241Z,28.53
2022-08-30T06:53:09.656Z,24.80
2022-08-30T06:55:37.497Z,37.50
2022-08-30T06:58:05.162Z,27.13
2022-08-30T07:00:31.934Z,21.07
2022-08-30T07:02:59.089Z,28.70
2022-08-30T07:05:25.894Z,23.83
2022-08-30T07:07:55.387Z,20.20
2022-08-30T07:10:22.147Z,25.80
2022-08-30T07:12:49.204Z,21.10
2022-08-30T07:15:16.459Z,18.93
2022-08-30T07:18:01.568Z,21.60
2022-08-30T07:20:39.911Z,16.63
2022-08-30T07:23:07.637Z,19.93
2022-08-30T07:25:34.468Z,19.57
2022-08-30T07:28:01.169Z,16.03
2022-08-30T07:30:27.947Z,15.50
2022-08-30T07:32:54.718Z,16.23
2022-08-30T07:35:21.546Z,17.93
2022-08-30T07:37:48.399Z,16.30
2022-08-30T07:40:15.353Z,12.13
2022-08-30T07:42:42.155Z,10.60
2022-08-30T07:45:09.898Z,10.50
2022-08-30T07:47:36.846Z,21.50
2022-08-30T07:50:06.426Z,11.73
2022-08-30T07:52:33.778Z,11.03
2022-08-30T07:55:01.519Z,12.77
2022-08-30T07:57:31.657Z,17.80
2022-08-30T07:59:58.427Z,17.03
2022-08-30T08:02:25.457Z,13.30
2022-08-30T08:04:52.396Z,11.60
2022-08-30T08:07:19.457Z,12.33
2022-08-30T08:09:46.216Z,12.47
2022-08-30T08:12:13.335Z,10.57
2022-08-30T08:14:41.511Z,12.23
2022-08-30T08:17:08.294Z,13.73
2022-08-30T08:19:35.064Z,19.23
2022-08-30T08:22:20.593Z,14.73
2022-08-30T08:24:47.796Z,11.53
2022-08-30T08:27:14.495Z,9.53
2022-08-30T08:29:41.267Z,19.63
2022-08-30T08:32:08.207Z,16.63
2022-08-30T08:34:36.074Z,12.73
2022-08-30T08:37:03.087Z,9.27
2022-08-30T08:39:29.874Z,11.83
2022-08-30T08:42:17.035Z,13.53
2022-08-30T08:45:00.459Z,10.07
2022-08-30T08:47:39.434Z,11.30
2022-08-30T08:50:12.544Z,12.03
2022-08-30T08:53:45.402Z,9.87
2022-08-30T08:56:15.927Z,10.10
2022-08-30T08:58:44.016Z,11.57
2022-08-30T09:01:13.406Z,9.43
2022-08-30T09:03:40.517Z,8.63
2022-08-30T09:06:45.245Z,9.23
2022-08-30T09:09:13.337Z,9.70
2022-08-30T09:11:40.996Z,12.40
2022-08-30T09:14:15.390Z,8.40
2022-08-30T09:16:47.177Z,10.63
2022-08-30T09:19:38.816Z,8.47
2022-08-30T09:22:42.756Z,13.80
2022-08-30T09:25:13.457Z,10.57
2022-08-30T09:27:42.524Z,11.83
2022-08-30T09:30:14.454Z,10.03
2022-08-30T09:32:54.996Z,14.70
2022-08-30T09:35:34.836Z,14.70
2022-08-30T09:38:10.336Z,8.93
2022-08-30T09:40:42.726Z,15.80
2022-08-30T09:43:16.707Z,15.50
2022-08-30T09:45:47.521Z,12.60
2022-08-30T09:48:40.996Z,8.90
2022-08-30T09:51:10.957Z,13.97
2022-08-30T09:54:16.752Z,13.60
2022-08-30T09:56:55.312Z,7.73
2022-08-30T09:59:49.429Z,8.53
2022-08-30T10:02:33.007Z,9.07
2022-08-30T10:05:27.107Z,9.23
2022-08-30T10:08:15.094Z,8.97
2022-08-30T10:11:04.397Z,11.40
2022-08-30T10:13:44.946Z,16.83
2022-08-30T10:16:19.605Z,13.27
2022-08-30T10:19:04.275Z,20.50
2022-08-30T10:21:41.086Z,7.20
2022-08-30T10:24:14.226Z,7.07
2022-08-30T10:27:07.817Z,9.20
2022-08-30T10:29:40.635Z,10.23
2022-08-30T10:32:24.924Z,7.43
2022-08-30T10:34:56.734Z,7.90
2022-08-30T10:37:29.196Z,13.17
2022-08-30T10:40:22.136Z,13.53
2022-08-30T10:42:49.847Z,13.10
2022-08-30T10:45:17.704Z,7.27
2022-08-30T10:48:00.830Z,14.00
2022-08-30T10:50:41.267Z,7.97
2022-08-30T10:53:22.476Z,6.73
2022-08-30T10:55:52.524Z,5.73
2022-08-30T10:58:19.666Z,6.50
2022-08-30T11:01:14.923Z,7.47
2022-08-30T11:04:09.297Z,7.70
2022-08-30T11:06:47.796Z,9.20
2022-08-30T11:09:44.777Z,6.70
2022-08-30T11:12:37.402Z,7.80
2022-08-30T11:15:25.203Z,7.57
2022-08-30T11:18:10.159Z,6.03
2022-08-30T11:20:47.053Z,6.97
2022-08-30T11:23:32.669Z,4.90
2022-08-30T11:26:08.967Z,5.47
2022-08-30T11:28:46.381Z,5.37
2022-08-30T11:31:22.633Z,6.67
2022-08-30T11:33:59.593Z,7.93
2022-08-30T11:36:37.766Z,11.37
2022-08-30T11:39:06.174Z,4.97
2022-08-30T11:41:42.095Z,5.43
2022-08-30T11:44:21.446Z,10.33
2022-08-30T11:46:49.905Z,7.03
2022-08-30T11:49:19.587Z,5.97
2022-08-30T11:52:26.252Z,11.20
2022-08-30T11:55:23.184Z,5.17
2022-08-30T11:57:52.526Z,4.80
2022-08-30T12:00:34.947Z,4.93
2022-08-30T12:03:05.627Z,4.07
2022-08-30T12:05:38.853Z,7.83
2022-08-30T12:08:20.675Z,11.40
2022-08-30T12:10:54.665Z,6.43
2022-08-30T12:13:37.058Z,4.00
2022-08-30T12:16:12.610Z,3.90
2022-08-30T12:19:00.919Z,3.10
2022-08-30T12:21:43.646Z,3.40
2022-08-30T12:24:21.495Z,9.97
2022-08-30T12:26:51.453Z,7.50
2022-08-30T12:29:29.978Z,3.80
2022-08-30T12:31:59.437Z,4.63
2022-08-30T12:34:30.846Z,7.60
2022-08-30T12:37:04.853Z,7.00
2022-08-30T12:39:43.696Z,4.63
2022-08-30T12:42:26.892Z,5.60
2022-08-30T12:44:57.988Z,9.17
2022-08-30T12:47:45.968Z,5.10
2022-08-30T12:50:22.209Z,4.83
2022-08-30T12:53:00.876Z,4.17
2022-08-30T12:55:35.899Z,4.47
2022-08-30T12:58:11.306Z,3.33
2022-08-30T13:00:39.730Z,4.23
2022-08-30T13:03:26.140Z,5.47
2022-08-30T13:05:57.610Z,3.10
2022-08-30T13:08:37.345Z,3.70
2022-08-30T13:11:08.507Z,3.57
2022-08-30T13:13:51.910Z,3.80
2022-08-30T13:16:20.725Z,4.10
2022-08-30T13:18:49.736Z,3.83
2022-08-30T13:21:21.875Z,5.73
2022-08-30T13:23:50.618Z,3.57
2022-08-30T13:26:21.090Z,4.67
2022-08-30T13:28:52.980Z,3.73
2022-08-30T13:31:20.501Z,3.73
2022-08-30T13:33:53.165Z,4.80
2022-08-30T13:36:23.053Z,3.67
2022-08-30T13:38:51.875Z,3.87
2022-08-30T13:41:20.904Z,4.00
2022-08-30T13:46:35.870Z,3.80
2022-08-30T13:49:06.522Z,3.97
2022-08-30T13:51:33.876Z,5.27
2022-08-30T13:54:02.652Z,2.80
2022-08-30T13:56:32.163Z,4.50
2022-08-30T13:58:59.666Z,4.13
2022-08-30T14:01:30.016Z,6.47
2022-08-30T14:04:16.752Z,4.17
2022-08-30T14:09:30.952Z,4.13
2022-08-30T14:11:57.736Z,4.13
2022-08-30T14:14:41.866Z,5.00
2022-08-30T14:17:09.907Z,3.87
2022-08-30T14:19:36.706Z,4.20
2022-08-30T14:22:03.623Z,5.20
2022-08-30T14:24:30.445Z,3.67
2022-08-30T14:26:57.231Z,7.60
2022-08-30T14:29:30.006Z,6.00
2022-08-30T14:31:58.575Z,5.13
2022-08-30T14:34:27.186Z,3.60
2022-08-30T14:36:54.167Z,5.93
2022-08-30T14:39:21.746Z,7.17
2022-08-30T14:41:51.268Z,4.00
2022-08-30T14:44:19.416Z,3.20
2022-08-30T14:46:46.606Z,4.57
2022-08-30T14:49:14.606Z,3.87
2022-08-30T14:51:42.417Z,3.63
2022-08-30T14:54:10.164Z,3.60
2022-08-30T14:56:38.115Z,4.07
2022-08-30T14:59:05.691Z,5.87
2022-08-30T15:01:32.696Z,9.93
2022-08-30T15:04:03.983Z,3.33
2022-08-30T15:06:34.904Z,5.73
2022-08-30T15:09:05.268Z,4.10
2022-08-30T15:11:33.272Z,3.70
2022-08-30T15:14:00.468Z,7.87
2022-08-30T15:16:33.068Z,3.90
2022-08-30T15:19:00.642Z,3.57
2022-08-30T15:21:35.916Z,3.97
2022-08-30T15:24:04.256Z,6.90
2022-08-30T15:26:31.525Z,4.10
2022-08-30T15:28:59.096Z,4.93
2022-08-30T15:31:28.560Z,3.90
2022-08-30T15:33:55.657Z,4.33
2022-08-30T15:36:24.374Z,7.13
2022-08-30T15:38:53.976Z,9.73
2022-08-30T15:41:20.957Z,4.30
2022-08-30T15:43:49.336Z,4.57
2022-08-30T15:46:22.687Z,3.97
2022-08-30T15:48:52.055Z,4.77
2022-08-30T15:51:19.286Z,6.00
2022-08-30T15:53:46.716Z,4.33
2022-08-30T15:56:14.184Z,4.30
2022-08-30T15:58:41.234Z,4.00
2022-08-30T16:01:08.267Z,5.97
2022-08-30T16:03:36.074Z,8.07
2022-08-30T16:06:04.863Z,3.97
2022-08-30T16:08:31.595Z,4.17
2022-08-30T16:10:58.357Z,7.97
2022-08-30T16:13:25.243Z,6.13
2022-08-30T16:15:52.152Z,4.50
2022-08-30T16:18:19.096Z,4.83
2022-08-30T16:20:45.937Z,4.77
2022-08-30T16:23:12.738Z,7.10
2022-08-30T16:25:41.235Z,4.63
2022-08-30T16:28:09.509Z,5.57
2022-08-30T16:30:36.880Z,10.97
2022-08-30T16:33:03.828Z,4.77
2022-08-30T16:35:30.634Z,6.87
2022-08-30T16:37:57.746Z,4.20
2022-08-30T16:40:24.572Z,4.77
2022-08-30T16:42:51.898Z,7.10
2022-08-30T16:45:19.260Z,4.90
2022-08-30T16:47:46.285Z,6.07
2022-08-30T16:50:13.245Z,9.23
2022-08-30T16:52:43.953Z,20.30
2022-08-30T16:55:11.031Z,4.77
2022-08-30T16:57:38.636Z,6.77
2022-08-30T17:00:13.291Z,17.43
2022-08-30T17:02:42.635Z,5.37
2022-08-30T17:05:21.746Z,6.50
2022-08-30T17:07:48.535Z,5.30
2022-08-30T17:10:15.495Z,7.30
2022-08-30T17:12:50.020Z,7.37
2022-08-30T17:15:19.986Z,9.90
2022-08-30T17:17:47.768Z,15.80
2022-08-30T17:20:15.556Z,5.40
2022-08-30T17:22:42.499Z,7.33
2022-08-30T17:25:13.317Z,8.07
2022-08-30T17:27:40.302Z,17.40
2022-08-30T17:30:08.796Z,7.30
2022-08-30T17:32:35.667Z,6.43
2022-08-30T17:35:02.737Z,5.83
2022-08-30T17:37:33.460Z,13.63
2022-08-30T17:40:00.746Z,13.47
2022-08-30T17:42:29.735Z,6.57
2022-08-30T17:44:58.029Z,9.70
2022-08-30T17:47:28.137Z,7.40
2022-08-30T17:49:55.652Z,9.23
2022-08-30T17:52:22.417Z,12.83
2022-08-30T17:54:50.578Z,5.97
2022-08-30T17:57:17.980Z,8.57
2022-08-30T17:59:45.719Z,7.37
2022-08-30T18:02:13.787Z,15.63
2022-08-30T18:04:42.008Z,6.80
2022-08-30T18:07:11.993Z,7.70
2022-08-30T18:09:39.822Z,9.13
2022-08-30T18:12:07.407Z,10.03
2022-08-30T18:14:34.207Z,7.47
2022-08-30T18:17:02.796Z,5.40
2022-08-30T18:19:30.458Z,5.10
2022-08-30T18:21:57.150Z,8.67
2022-08-30T18:24:24.594Z,5.70
2022-08-30T18:26:51.667Z,7.53
2022-08-30T18:29:29.384Z,6.03
2022-08-30T18:32:02.132Z,5.80
2022-08-30T18:34:29.200Z,7.37
2022-08-30T18:36:56.301Z,9.43
2022-08-30T18:39:23.223Z,10.13
2022-08-30T18:41:51.085Z,8.13
2022-08-30T18:44:28.262Z,9.90
2022-08-30T18:46:57.585Z,7.00
2022-08-30T18:49:27.966Z,7.63
2022-08-30T18:51:54.748Z,9.27
2022-08-30T18:54:21.822Z,4.97
2022-08-30T18:56:49.678Z,6.43
2022-08-30T18:59:17.463Z,6.30
2022-08-30T19:01:46.877Z,6.17
2022-08-30T19:04:29.658Z,10.33
2022-08-30T19:07:03.377Z,6.00
2022-08-30T19:09:30.591Z,6.80
2022-08-30T19:11:57.340Z,6.53
2022-08-30T19:14:24.273Z,9.13
2022-08-30T19:16:56.372Z,11.13
2022-08-30T19:19:23.705Z,6.70
2022-08-30T19:21:50.486Z,8.57
2022-08-30T19:24:17.915Z,6.53
2022-08-30T19:26:46.856Z,10.53
2022-08-30T19:29:14.473Z,13.37
2022-08-30T19:31:42.300Z,9.27
2022-08-30T19:34:09.168Z,6.53
2022-08-30T19:36:36.273Z,11.33
2022-08-30T19:39:04.066Z,6.20
2022-08-30T19:41:31.026Z,10.00
2022-08-30T19:43:58.758Z,7.50
2022-08-30T19:46:30.008Z,6.47
2022-08-30T19:49:01.193Z,7.40
2022-08-30T19:51:28.268Z,9.70
2022-08-30T19:53:56.445Z,7.33
2022-08-30T19:56:26.636Z,6.50
2022-08-30T19:58:54.054Z,15.43
2022-08-30T20:01:32.719Z,12.70
2022-08-30T20:04:02.163Z,6.20
2022-08-30T20:06:30.041Z,9.83
2022-08-30T20:08:58.244Z,9.50
2022-08-30T20:11:28.456Z,8.60
2022-08-30T20:13:56.128Z,9.13
2022-08-30T20:16:35.546Z,7.20
2022-08-30T20:19:06.263Z,10.80
2022-08-30T20:21:33.291Z,6.60
2022-08-30T20:24:01.028Z,7.97
2022-08-30T20:26:33.879Z,7.80
2022-08-30T20:29:02.780Z,7.80
2022-08-30T20:31:29.631Z,13.93
2022-08-30T20:33:56.407Z,10.93
2022-08-30T20:36:23.106Z,10.50
2022-08-30T20:38:50.225Z,11.10
2022-08-30T20:41:18.422Z,11.13
2022-08-30T20:43:45.832Z,6.67
2022-08-30T20:46:16.014Z,7.67
2022-08-30T20:48:43.596Z,8.33
2022-08-30T20:51:12.734Z,6.80
2022-08-30T20:53:39.450Z,6.70
2022-08-30T20:56:11.878Z,7.73
2022-08-30T20:58:38.550Z,6.80
2022-08-30T21:01:08.292Z,9.70
2022-08-30T21:03:34.956Z,11.87
2022-08-30T21:06:01.760Z,13.50
2022-08-30T21:08:28.462Z,6.23
2022-08-30T21:10:55.279Z,13.80
2022-08-30T21:13:22.476Z,9.57
2022-08-30T21:15:54.791Z,6.90
2022-08-30T21:18:22.035Z,7.23
2022-08-30T21:20:48.712Z,7.40
2022-08-30T21:23:15.351Z,13.07
2022-08-30T21:25:42.962Z,10.33
2022-08-30T21:28:10.134Z,9.83
2022-08-30T21:30:37.594Z,9.43
2022-08-30T21:33:05.959Z,7.20
2022-08-30T21:35:51.585Z,10.13
2022-08-30T21:38:19.095Z,7.43
2022-08-30T21:40:46.963Z,9.37
2022-08-30T21:43:13.825Z,9.67
2022-08-30T21:45:42.130Z,16.30
2022-08-30T21:48:10.306Z,9.30
2022-08-30T21:50:43.876Z,6.50
2022-08-30T21:53:10.763Z,8.40
2022-08-30T21:55:38.671Z,7.00
2022-08-30T21:58:05.446Z,9.53
2022-08-30T22:00:33.673Z,9.50
2022-08-30T22:03:00.555Z,8.10
2022-08-30T22:05:27.327Z,9.03
2022-08-30T22:07:54.010Z,9.23
2022-08-30T22:10:21.242Z,8.20
2022-08-30T22:12:48.011Z,10.13
2022-08-30T22:15:14.817Z,7.00
2022-08-30T22:17:43.167Z,15.30
2022-08-30T22:20:10.333Z,9.40
2022-08-30T22:22:37.980Z,6.80
2022-08-30T22:25:05.039Z,10.90
2022-08-30T22:27:31.725Z,11.70
2022-08-30T22:29:58.389Z,8.33
2022-08-30T22:32:25.036Z,10.30
2022-08-30T22:34:51.701Z,7.83
2022-08-30T22:37:18.466Z,7.07
2022-08-30T22:39:45.127Z,11.37
2022-08-30T22:42:11.803Z,10.97
2022-08-30T22:44:38.476Z,10.53
2022-08-30T22:47:05.250Z,11.30
2022-08-30T22:49:32.017Z,6.77
2022-08-30T22:51:58.675Z,6.40
2022-08-30T22:54:25.489Z,12.33
2022-08-30T22:56:53.428Z,10.57
2022-08-30T22:59:20.099Z,6.87
2022-08-30T23:01:49.275Z,9.13
2022-08-30T23:04:16.235Z,10.13
2022-08-30T23:06:49.943Z,8.10
2022-08-30T23:09:17.294Z,11.90
2022-08-30T23:11:43.968Z,7.90
2022-08-30T23:14:10.851Z,7.60
2022-08-30T23:16:38.036Z,11.60
2022-08-30T23:19:05.013Z,10.47
2022-08-30T23:21:31.777Z,9.20
2022-08-30T23:24:18.115Z,14.73
2022-08-30T23:27:04.111Z,9.03
2022-08-30T23:29:50.331Z,18.10
2022-08-30T23:32:35.521Z,10.03
2022-08-30T23:35:29.534Z,11.13
2022-08-30T23:38:19.056Z,10.03
2022-08-30T23:41:04.165Z,9.47
2022-08-30T23:43:49.595Z,9.43
2022-08-30T23:46:34.816Z,9.40
2022-08-30T23:49:20.329Z,6.70
2022-08-30T23:52:06.095Z,19.70
2022-08-30T23:54:51.515Z,13.43
2022-08-30T23:57:42.256Z,12.90
